sensor_id;sensor_type;location;lat;lon;timestamp;temperature;humidity
11922;DHT22;6021;51.182;3.160;2023-01-05T00:01:11;10.60;99.90
11922;DHT22;6021;51.182;3.160;2023-01-05T00:03:40;10.70;99.90
11922;DHT22;6021;51.182;3.160;2023-01-05T00:06:13;10.90;99.90
11922;DHT22;6021;51.182;3.160;2023-01-05T00:08:42;10.70;99.90
11922;DHT22;6021;51.182;3.160;2023-01-05T00:11:19;10.90;99.90
11922;DHT22;6021;51.182;3.160;2023-01-05T00:14:08;10.60;99.90
11922;DHT22;6021;51.182;3.160;2023-01-05T00:16:54;10.70;99.90
11922;DHT22;6021;51.182;3.160;2023-01-05T00:19:40;10.50;99.90
11922;DHT22;6021;51.182;3.160;2023-01-05T00:22:29;10.50;99.90
11922;DHT22;6021;51.182;3.160;2023-01-05T00:25:06;10.70;99.90
11922;DHT22;6021;51.182;3.160;2023-01-05T00:27:35;10.40;99.90
11922;DHT22;6021;51.182;3.160;2023-01-05T00:30:04;10.70;99.90
11922;DHT22;6021;51.182;3.160;2023-01-05T00:32:33;10.60;99.90
11922;DHT22;6021;51.182;3.160;2023-01-05T00:35:01;10.40;99.90
11922;DHT22;6021;51.182;3.160;2023-01-05T00:37:32;10.50;99.90
11922;DHT22;6021;51.182;3.160;2023-01-05T00:40:00;10.40;99.90
11922;DHT22;6021;51.182;3.160;2023-01-05T00:42:29;10.40;99.90
11922;DHT22;6021;51.182;3.160;2023-01-05T00:44:57;10.40;99.90
11922;DHT22;6021;51.182;3.160;2023-01-05T00:47:26;10.10;99.90
11922;DHT22;6021;51.182;3.160;2023-01-05T00:49:54;10.10;99.90
11922;DHT22;6021;51.182;3.160;2023-01-05T00:52:22;10.00;99.90
11922;DHT22;6021;51.182;3.160;2023-01-05T00:54:51;10.10;99.90
11922;DHT22;6021;51.182;3.160;2023-01-05T00:57:19;10.10;99.90
11922;DHT22;6021;51.182;3.160;2023-01-05T00:59:48;10.00;99.90
11922;DHT22;6021;51.182;3.160;2023-01-05T01:02:17;10.00;99.90
11922;DHT22;6021;51.182;3.160;2023-01-05T01:04:46;9.80;99.90
11922;DHT22;6021;51.182;3.160;2023-01-05T01:07:14;9.80;99.90
11922;DHT22;6021;51.182;3.160;2023-01-05T01:09:42;9.70;99.90
11922;DHT22;6021;51.182;3.160;2023-01-05T01:12:11;9.80;99.90
11922;DHT22;6021;51.182;3.160;2023-01-05T01:14:40;10.00;99.90
11922;DHT22;6021;51.182;3.160;2023-01-05T01:17:09;9.90;99.90
11922;DHT22;6021;51.182;3.160;2023-01-05T01:19:37;9.90;99.90
11922;DHT22;6021;51.182;3.160;2023-01-05T01:22:05;9.90;99.90
11922;DHT22;6021;51.182;3.160;2023-01-05T01:24:34;10.10;99.90
11922;DHT22;6021;51.182;3.160;2023-01-05T01:27:02;10.10;99.90
11922;DHT22;6021;51.182;3.160;2023-01-05T01:29:31;10.00;99.90
11922;DHT22;6021;51.182;3.160;2023-01-05T01:31:59;10.10;99.90
11922;DHT22;6021;51.182;3.160;2023-01-05T01:34:28;10.10;99.90
11922;DHT22;6021;51.182;3.160;2023-01-05T01:36:56;10.30;99.90
11922;DHT22;6021;51.182;3.160;2023-01-05T01:39:25;10.10;99.90
11922;DHT22;6021;51.182;3.160;2023-01-05T01:41:53;10.10;99.90
11922;DHT22;6021;51.182;3.160;2023-01-05T01:50:16;10.40;99.90
11922;DHT22;6021;51.182;3.160;2023-01-05T01:52:40;10.20;99.90
11922;DHT22;6021;51.182;3.160;2023-01-05T01:55:09;10.10;99.90
11922;DHT22;6021;51.182;3.160;2023-01-05T01:57:38;10.30;99.90
11922;DHT22;6021;51.182;3.160;2023-01-05T02:00:08;10.10;99.90
11922;DHT22;6021;51.182;3.160;2023-01-05T02:02:39;10.30;99.90
11922;DHT22;6021;51.182;3.160;2023-01-05T02:05:10;10.30;99.90
11922;DHT22;6021;51.182;3.160;2023-01-05T02:07:44;10.50;99.90
11922;DHT22;6021;51.182;3.160;2023-01-05T02:10:15;10.60;99.90
11922;DHT22;6021;51.182;3.160;2023-01-05T02:13:05;10.70;99.90
11922;DHT22;6021;51.182;3.160;2023-01-05T02:15:55;10.40;99.90
11922;DHT22;6021;51.182;3.160;2023-01-05T02:21:17;10.40;99.90
11922;DHT22;6021;51.182;3.160;2023-01-05T02:23:54;10.60;99.90
11922;DHT22;6021;51.182;3.160;2023-01-05T02:32:18;10.40;99.90
11922;DHT22;6021;51.182;3.160;2023-01-05T02:35:16;10.40;99.90
11922;DHT22;6021;51.182;3.160;2023-01-05T02:37:44;10.60;99.90
11922;DHT22;6021;51.182;3.160;2023-01-05T02:40:25;10.50;99.90
11922;DHT22;6021;51.182;3.160;2023-01-05T02:42:50;10.40;99.90
11922;DHT22;6021;51.182;3.160;2023-01-05T02:45:21;10.40;99.90
11922;DHT22;6021;51.182;3.160;2023-01-05T02:47:50;10.30;99.90
11922;DHT22;6021;51.182;3.160;2023-01-05T02:50:24;10.40;99.90
11922;DHT22;6021;51.182;3.160;2023-01-05T02:52:59;10.60;99.90
11922;DHT22;6021;51.182;3.160;2023-01-05T02:55:35;10.40;99.90
11922;DHT22;6021;51.182;3.160;2023-01-05T02:58:02;10.50;99.90
11922;DHT22;6021;51.182;3.160;2023-01-05T03:00:41;10.70;99.90
11922;DHT22;6021;51.182;3.160;2023-01-05T03:03:20;10.50;99.90
11922;DHT22;6021;51.182;3.160;2023-01-05T03:05:48;10.70;99.90
11922;DHT22;6021;51.182;3.160;2023-01-05T03:08:16;10.60;99.90
11922;DHT22;6021;51.182;3.160;2023-01-05T03:11:05;10.40;99.90
11922;DHT22;6021;51.182;3.160;2023-01-05T03:14:06;10.60;99.90
11922;DHT22;6021;51.182;3.160;2023-01-05T03:16:32;10.60;99.90
11922;DHT22;6021;51.182;3.160;2023-01-05T03:19:02;11.00;99.90
11922;DHT22;6021;51.182;3.160;2023-01-05T03:21:49;10.70;99.90
11922;DHT22;6021;51.182;3.160;2023-01-05T03:24:37;10.80;99.90
11922;DHT22;6021;51.182;3.160;2023-01-05T03:27:23;10.50;99.90
11922;DHT22;6021;51.182;3.160;2023-01-05T03:30:11;10.40;99.90
11922;DHT22;6021;51.182;3.160;2023-01-05T03:33:13;10.40;99.90
11922;DHT22;6021;51.182;3.160;2023-01-05T03:35:56;10.40;99.90
11922;DHT22;6021;51.182;3.160;2023-01-05T03:38:29;10.70;99.90
11922;DHT22;6021;51.182;3.160;2023-01-05T03:40:59;10.40;99.90
11922;DHT22;6021;51.182;3.160;2023-01-05T03:43:38;10.30;99.90
11922;DHT22;6021;51.182;3.160;2023-01-05T03:46:08;10.30;99.90
11922;DHT22;6021;51.182;3.160;2023-01-05T03:48:37;10.40;99.90
11922;DHT22;6021;51.182;3.160;2023-01-05T03:51:05;10.30;99.90
11922;DHT22;6021;51.182;3.160;2023-01-05T03:53:34;10.30;99.90
11922;DHT22;6021;51.182;3.160;2023-01-05T03:56:03;10.10;99.90
11922;DHT22;6021;51.182;3.160;2023-01-05T03:58:31;10.40;99.90
11922;DHT22;6021;51.182;3.160;2023-01-05T04:00:59;10.40;99.90
11922;DHT22;6021;51.182;3.160;2023-01-05T04:03:28;10.30;99.90
11922;DHT22;6021;51.182;3.160;2023-01-05T04:05:56;10.40;99.90
11922;DHT22;6021;51.182;3.160;2023-01-05T04:08:25;10.40;99.90
11922;DHT22;6021;51.182;3.160;2023-01-05T04:10:53;10.30;99.90
11922;DHT22;6021;51.182;3.160;2023-01-05T04:13:22;10.40;99.90
11922;DHT22;6021;51.182;3.160;2023-01-05T04:15:52;10.40;99.90
11922;DHT22;6021;51.182;3.160;2023-01-05T04:18:20;10.50;99.90
11922;DHT22;6021;51.182;3.160;2023-01-05T04:20:48;10.70;99.90
11922;DHT22;6021;51.182;3.160;2023-01-05T04:23:17;10.40;99.90
11922;DHT22;6021;51.182;3.160;2023-01-05T04:25:46;10.40;99.90
11922;DHT22;6021;51.182;3.160;2023-01-05T04:28:15;10.10;99.90
11922;DHT22;6021;51.182;3.160;2023-01-05T04:30:44;10.10;99.90
11922;DHT22;6021;51.182;3.160;2023-01-05T04:33:12;10.40;99.90
11922;DHT22;6021;51.182;3.160;2023-01-05T04:35:41;10.40;99.90
11922;DHT22;6021;51.182;3.160;2023-01-05T04:38:09;10.50;99.90
11922;DHT22;6021;51.182;3.160;2023-01-05T04:40:38;10.50;99.90
11922;DHT22;6021;51.182;3.160;2023-01-05T04:43:07;10.50;99.90
11922;DHT22;6021;51.182;3.160;2023-01-05T04:45:35;10.50;99.90
11922;DHT22;6021;51.182;3.160;2023-01-05T04:48:03;10.30;99.90
11922;DHT22;6021;51.182;3.160;2023-01-05T04:50:32;10.40;99.90
11922;DHT22;6021;51.182;3.160;2023-01-05T04:53:02;10.50;99.90
11922;DHT22;6021;51.182;3.160;2023-01-05T04:55:30;10.60;99.90
11922;DHT22;6021;51.182;3.160;2023-01-05T04:57:59;10.30;99.90
11922;DHT22;6021;51.182;3.160;2023-01-05T05:00:27;10.60;99.90
11922;DHT22;6021;51.182;3.160;2023-01-05T05:02:57;10.50;99.90
11922;DHT22;6021;51.182;3.160;2023-01-05T05:05:26;10.30;99.90
11922;DHT22;6021;51.182;3.160;2023-01-05T05:07:54;10.40;99.90
11922;DHT22;6021;51.182;3.160;2023-01-05T05:10:22;10.40;99.90
11922;DHT22;6021;51.182;3.160;2023-01-05T05:12:51;10.60;99.90
11922;DHT22;6021;51.182;3.160;2023-01-05T05:15:19;10.40;99.90
11922;DHT22;6021;51.182;3.160;2023-01-05T05:17:48;10.50;99.90
11922;DHT22;6021;51.182;3.160;2023-01-05T05:20:16;10.30;99.90
11922;DHT22;6021;51.182;3.160;2023-01-05T05:22:45;10.40;99.90
11922;DHT22;6021;51.182;3.160;2023-01-05T05:25:13;10.50;99.90
11922;DHT22;6021;51.182;3.160;2023-01-05T05:27:41;10.40;99.90
11922;DHT22;6021;51.182;3.160;2023-01-05T05:30:10;10.70;99.90
11922;DHT22;6021;51.182;3.160;2023-01-05T05:32:38;10.30;99.90
11922;DHT22;6021;51.182;3.160;2023-01-05T05:35:07;10.30;99.90
11922;DHT22;6021;51.182;3.160;2023-01-05T05:37:36;10.50;99.90
11922;DHT22;6021;51.182;3.160;2023-01-05T05:40:05;10.30;99.90
11922;DHT22;6021;51.182;3.160;2023-01-05T05:42:33;10.00;99.90
11922;DHT22;6021;51.182;3.160;2023-01-05T05:45:02;10.10;99.90
11922;DHT22;6021;51.182;3.160;2023-01-05T05:47:30;10.00;99.90
11922;DHT22;6021;51.182;3.160;2023-01-05T05:49:58;10.00;99.90
11922;DHT22;6021;51.182;3.160;2023-01-05T05:52:27;10.10;99.90
11922;DHT22;6021;51.182;3.160;2023-01-05T05:54:55;10.10;99.90
11922;DHT22;6021;51.182;3.160;2023-01-05T05:57:24;10.00;99.90
11922;DHT22;6021;51.182;3.160;2023-01-05T05:59:52;10.10;99.90
11922;DHT22;6021;51.182;3.160;2023-01-05T06:02:20;9.80;99.90
11922;DHT22;6021;51.182;3.160;2023-01-05T06:04:49;9.90;99.90
11922;DHT22;6021;51.182;3.160;2023-01-05T06:07:17;9.80;99.90
11922;DHT22;6021;51.182;3.160;2023-01-05T06:09:46;9.80;99.90
11922;DHT22;6021;51.182;3.160;2023-01-05T06:12:14;9.80;99.90
11922;DHT22;6021;51.182;3.160;2023-01-05T06:14:42;9.70;99.90
11922;DHT22;6021;51.182;3.160;2023-01-05T06:17:11;9.70;99.90
11922;DHT22;6021;51.182;3.160;2023-01-05T06:19:39;9.70;99.90
11922;DHT22;6021;51.182;3.160;2023-01-05T06:22:07;9.90;99.90
11922;DHT22;6021;51.182;3.160;2023-01-05T06:24:36;10.20;99.90
11922;DHT22;6021;51.182;3.160;2023-01-05T06:27:04;10.10;99.90
11922;DHT22;6021;51.182;3.160;2023-01-05T06:29:33;10.00;99.90
11922;DHT22;6021;51.182;3.160;2023-01-05T06:32:01;10.00;99.90
11922;DHT22;6021;51.182;3.160;2023-01-05T06:34:30;10.00;99.90
11922;DHT22;6021;51.182;3.160;2023-01-05T06:36:58;10.10;99.90
11922;DHT22;6021;51.182;3.160;2023-01-05T06:39:27;10.00;99.90
11922;DHT22;6021;51.182;3.160;2023-01-05T06:41:55;10.10;99.90
11922;DHT22;6021;51.182;3.160;2023-01-05T06:44:24;10.10;99.90
11922;DHT22;6021;51.182;3.160;2023-01-05T06:46:52;10.10;99.90
11922;DHT22;6021;51.182;3.160;2023-01-05T06:49:20;10.10;99.90
11922;DHT22;6021;51.182;3.160;2023-01-05T06:51:49;10.10;99.90
11922;DHT22;6021;51.182;3.160;2023-01-05T06:54:17;10.00;99.90
11922;DHT22;6021;51.182;3.160;2023-01-05T06:56:46;9.90;99.90
11922;DHT22;6021;51.182;3.160;2023-01-05T06:59:14;10.00;99.90
11922;DHT22;6021;51.182;3.160;2023-01-05T07:01:42;10.00;99.90
11922;DHT22;6021;51.182;3.160;2023-01-05T07:04:11;9.80;99.90
11922;DHT22;6021;51.182;3.160;2023-01-05T07:06:39;9.70;99.90
11922;DHT22;6021;51.182;3.160;2023-01-05T07:09:08;9.80;99.90
11922;DHT22;6021;51.182;3.160;2023-01-05T07:11:36;9.80;99.90
11922;DHT22;6021;51.182;3.160;2023-01-05T07:14:05;9.80;99.90
11922;DHT22;6021;51.182;3.160;2023-01-05T07:16:33;9.70;99.90
11922;DHT22;6021;51.182;3.160;2023-01-05T07:19:01;9.60;99.90
11922;DHT22;6021;51.182;3.160;2023-01-05T07:21:30;9.60;99.90
11922;DHT22;6021;51.182;3.160;2023-01-05T07:23:58;9.70;99.90
11922;DHT22;6021;51.182;3.160;2023-01-05T07:26:27;9.70;99.90
11922;DHT22;6021;51.182;3.160;2023-01-05T07:28:55;9.70;99.90
11922;DHT22;6021;51.182;3.160;2023-01-05T07:31:24;9.60;99.90
11922;DHT22;6021;51.182;3.160;2023-01-05T07:33:53;9.40;99.90
11922;DHT22;6021;51.182;3.160;2023-01-05T07:36:21;9.50;99.90
11922;DHT22;6021;51.182;3.160;2023-01-05T07:38:51;9.60;99.90
11922;DHT22;6021;51.182;3.160;2023-01-05T07:41:20;9.40;99.90
11922;DHT22;6021;51.182;3.160;2023-01-05T07:43:48;9.50;99.90
11922;DHT22;6021;51.182;3.160;2023-01-05T07:46:17;9.30;99.90
11922;DHT22;6021;51.182;3.160;2023-01-05T07:48:45;9.40;99.90
11922;DHT22;6021;51.182;3.160;2023-01-05T07:51:14;9.40;99.90
11922;DHT22;6021;51.182;3.160;2023-01-05T07:53:42;9.40;99.90
11922;DHT22;6021;51.182;3.160;2023-01-05T07:56:12;9.50;99.90
11922;DHT22;6021;51.182;3.160;2023-01-05T07:58:40;9.40;99.90
11922;DHT22;6021;51.182;3.160;2023-01-05T08:01:11;9.70;99.90
11922;DHT22;6021;51.182;3.160;2023-01-05T08:03:40;9.40;99.90
11922;DHT22;6021;51.182;3.160;2023-01-05T08:06:13;9.40;99.90
11922;DHT22;6021;51.182;3.160;2023-01-05T08:08:42;9.30;99.90
11922;DHT22;6021;51.182;3.160;2023-01-05T08:13:38;9.40;99.90
11922;DHT22;6021;51.182;3.160;2023-01-05T08:16:25;9.30;99.90
11922;DHT22;6021;51.182;3.160;2023-01-05T08:18:54;9.90;99.90
11922;DHT22;6021;51.182;3.160;2023-01-05T08:21:22;9.70;99.90
11922;DHT22;6021;51.182;3.160;2023-01-05T08:23:51;9.80;99.90
11922;DHT22;6021;51.182;3.160;2023-01-05T08:26:21;9.70;99.90
11922;DHT22;6021;51.182;3.160;2023-01-05T08:28:51;9.90;99.90
11922;DHT22;6021;51.182;3.160;2023-01-05T08:31:21;9.70;99.90
11922;DHT22;6021;51.182;3.160;2023-01-05T08:33:50;10.00;99.90
11922;DHT22;6021;51.182;3.160;2023-01-05T08:36:22;10.00;99.90
11922;DHT22;6021;51.182;3.160;2023-01-05T08:38:52;10.00;99.90
11922;DHT22;6021;51.182;3.160;2023-01-05T08:41:26;10.10;99.90
11922;DHT22;6021;51.182;3.160;2023-01-05T08:43:59;10.00;99.90
11922;DHT22;6021;51.182;3.160;2023-01-05T08:46:33;10.00;99.90
11922;DHT22;6021;51.182;3.160;2023-01-05T08:49:03;9.90;99.90
11922;DHT22;6021;51.182;3.160;2023-01-05T08:51:32;10.00;99.90
11922;DHT22;6021;51.182;3.160;2023-01-05T08:54:01;10.00;99.90
11922;DHT22;6021;51.182;3.160;2023-01-05T08:56:29;10.20;99.90
11922;DHT22;6021;51.182;3.160;2023-01-05T08:58:57;10.00;99.90
11922;DHT22;6021;51.182;3.160;2023-01-05T09:01:26;10.00;99.90
11922;DHT22;6021;51.182;3.160;2023-01-05T09:03:54;10.30;99.90
11922;DHT22;6021;51.182;3.160;2023-01-05T09:06:23;10.10;99.90
11922;DHT22;6021;51.182;3.160;2023-01-05T09:08:51;10.00;99.90
11922;DHT22;6021;51.182;3.160;2023-01-05T09:11:23;10.10;99.90
11922;DHT22;6021;51.182;3.160;2023-01-05T09:13:57;10.00;99.90
11922;DHT22;6021;51.182;3.160;2023-01-05T09:16:28;10.20;99.90
11922;DHT22;6021;51.182;3.160;2023-01-05T09:18:57;10.60;99.90
11922;DHT22;6021;51.182;3.160;2023-01-05T09:21:25;10.30;99.90
11922;DHT22;6021;51.182;3.160;2023-01-05T09:23:54;10.60;99.90
11922;DHT22;6021;51.182;3.160;2023-01-05T09:26:24;10.40;99.90
11922;DHT22;6021;51.182;3.160;2023-01-05T09:28:54;10.60;99.90
11922;DHT22;6021;51.182;3.160;2023-01-05T09:31:22;10.60;99.90
11922;DHT22;6021;51.182;3.160;2023-01-05T09:33:51;10.50;99.90
11922;DHT22;6021;51.182;3.160;2023-01-05T09:36:19;10.70;99.90
11922;DHT22;6021;51.182;3.160;2023-01-05T09:38:49;11.00;99.90
11922;DHT22;6021;51.182;3.160;2023-01-05T09:44:02;10.70;99.90
11922;DHT22;6021;51.182;3.160;2023-01-05T09:46:36;10.90;99.90
11922;DHT22;6021;51.182;3.160;2023-01-05T09:49:06;10.80;99.90
11922;DHT22;6021;51.182;3.160;2023-01-05T09:51:35;10.70;99.90
11922;DHT22;6021;51.182;3.160;2023-01-05T09:54:04;10.80;99.90
11922;DHT22;6021;51.182;3.160;2023-01-05T09:56:40;10.70;99.90
11922;DHT22;6021;51.182;3.160;2023-01-05T09:59:24;11.00;99.90
11922;DHT22;6021;51.182;3.160;2023-01-05T10:01:55;10.70;99.90
11922;DHT22;6021;51.182;3.160;2023-01-05T10:04:27;10.70;99.90
11922;DHT22;6021;51.182;3.160;2023-01-05T10:07:04;10.60;99.90
11922;DHT22;6021;51.182;3.160;2023-01-05T10:09:34;10.70;99.90
11922;DHT22;6021;51.182;3.160;2023-01-05T10:12:20;10.70;99.90
11922;DHT22;6021;51.182;3.160;2023-01-05T10:15:09;11.20;99.90
11922;DHT22;6021;51.182;3.160;2023-01-05T10:17:38;11.00;99.90
11922;DHT22;6021;51.182;3.160;2023-01-05T10:20:25;11.00;99.90
11922;DHT22;6021;51.182;3.160;2023-01-05T10:23:48;11.30;99.90
11922;DHT22;6021;51.182;3.160;2023-01-05T10:25:27;11.30;99.90
11922;DHT22;6021;51.182;3.160;2023-01-05T10:28:00;11.10;99.90
11922;DHT22;6021;51.182;3.160;2023-01-05T10:30:43;11.40;99.90
11922;DHT22;6021;51.182;3.160;2023-01-05T10:33:14;11.40;99.90
11922;DHT22;6021;51.182;3.160;2023-01-05T10:38:38;11.70;99.90
11922;DHT22;6021;51.182;3.160;2023-01-05T10:44:06;11.70;99.90
11922;DHT22;6021;51.182;3.160;2023-01-05T10:46:36;12.00;99.90
11922;DHT22;6021;51.182;3.160;2023-01-05T10:49:06;11.80;99.90
11922;DHT22;6021;51.182;3.160;2023-01-05T10:51:35;12.00;99.90
11922;DHT22;6021;51.182;3.160;2023-01-05T10:54:05;11.80;99.90
11922;DHT22;6021;51.182;3.160;2023-01-05T10:56:33;11.90;99.90
11922;DHT22;6021;51.182;3.160;2023-01-05T10:59:12;11.90;99.90
11922;DHT22;6021;51.182;3.160;2023-01-05T11:01:46;12.00;99.90
11922;DHT22;6021;51.182;3.160;2023-01-05T11:04:17;12.00;99.90
11922;DHT22;6021;51.182;3.160;2023-01-05T11:06:48;11.90;99.90
11922;DHT22;6021;51.182;3.160;2023-01-05T11:09:18;12.00;99.90
11922;DHT22;6021;51.182;3.160;2023-01-05T11:11:57;12.10;99.90
11922;DHT22;6021;51.182;3.160;2023-01-05T11:14:28;12.10;99.90
11922;DHT22;6021;51.182;3.160;2023-01-05T11:17:02;12.10;99.90
11922;DHT22;6021;51.182;3.160;2023-01-05T11:19:36;12.40;99.90
11922;DHT22;6021;51.182;3.160;2023-01-05T11:22:49;12.40;99.90
11922;DHT22;6021;51.182;3.160;2023-01-05T11:24:39;12.50;99.90
11922;DHT22;6021;51.182;3.160;2023-01-05T11:27:22;12.60;99.90
11922;DHT22;6021;51.182;3.160;2023-01-05T11:32:44;12.70;99.90
11922;DHT22;6021;51.182;3.160;2023-01-05T11:35:32;12.40;99.90
11922;DHT22;6021;51.182;3.160;2023-01-05T11:38:02;12.60;99.90
11922;DHT22;6021;51.182;3.160;2023-01-05T11:40:32;12.70;99.90
11922;DHT22;6021;51.182;3.160;2023-01-05T11:43:08;12.50;99.90
11922;DHT22;6021;51.182;3.160;2023-01-05T11:45:39;12.70;99.90
11922;DHT22;6021;51.182;3.160;2023-01-05T11:48:07;12.60;99.90
11922;DHT22;6021;51.182;3.160;2023-01-05T11:50:47;12.60;99.90
11922;DHT22;6021;51.182;3.160;2023-01-05T11:53:24;12.80;99.90
11922;DHT22;6021;51.182;3.160;2023-01-05T11:56:17;12.70;99.90
11922;DHT22;6021;51.182;3.160;2023-01-05T11:58:46;12.60;99.90
11922;DHT22;6021;51.182;3.160;2023-01-05T12:09:45;12.60;99.90
11922;DHT22;6021;51.182;3.160;2023-01-05T12:23:43;12.60;99.90
11922;DHT22;6021;51.182;3.160;2023-01-05T12:26:22;12.40;99.90
11922;DHT22;6021;51.182;3.160;2023-01-05T12:32:14;12.40;99.90
11922;DHT22;6021;51.182;3.160;2023-01-05T12:48:53;12.10;99.90
11922;DHT22;6021;51.182;3.160;2023-01-05T12:51:25;12.30;99.90
11922;DHT22;6021;51.182;3.160;2023-01-05T12:56:50;12.10;99.90
11922;DHT22;6021;51.182;3.160;2023-01-05T12:59:31;12.30;99.90
11922;DHT22;6021;51.182;3.160;2023-01-05T13:18:37;12.40;99.90
11922;DHT22;6021;51.182;3.160;2023-01-05T13:21:09;13.00;99.90
11922;DHT22;6021;51.182;3.160;2023-01-05T13:26:19;13.10;99.90
11922;DHT22;6021;51.182;3.160;2023-01-05T13:28:51;13.00;99.90
11922;DHT22;6021;51.182;3.160;2023-01-05T13:40:32;12.50;99.90
11922;DHT22;6021;51.182;3.160;2023-01-05T13:51:50;12.70;99.90
11922;DHT22;6021;51.182;3.160;2023-01-05T13:54:44;12.60;99.90
11922;DHT22;6021;51.182;3.160;2023-01-05T13:57:18;12.70;99.90
11922;DHT22;6021;51.182;3.160;2023-01-05T13:59:43;12.70;99.90
11922;DHT22;6021;51.182;3.160;2023-01-05T14:02:24;12.80;99.90
11922;DHT22;6021;51.182;3.160;2023-01-05T14:04:54;12.80;99.90
11922;DHT22;6021;51.182;3.160;2023-01-05T14:07:23;12.90;99.90
11922;DHT22;6021;51.182;3.160;2023-01-05T14:09:54;13.00;99.90
11922;DHT22;6021;51.182;3.160;2023-01-05T14:12:26;13.00;99.90
11922;DHT22;6021;51.182;3.160;2023-01-05T14:17:58;13.00;99.90
11922;DHT22;6021;51.182;3.160;2023-01-05T14:26:07;13.10;99.90
11922;DHT22;6021;51.182;3.160;2023-01-05T14:28:43;13.00;99.90
11922;DHT22;6021;51.182;3.160;2023-01-05T14:34:02;12.70;99.90
11922;DHT22;6021;51.182;3.160;2023-01-05T14:39:21;12.70;99.90
11922;DHT22;6021;51.182;3.160;2023-01-05T14:41:59;12.60;99.90
11922;DHT22;6021;51.182;3.160;2023-01-05T14:47:10;12.70;99.90
11922;DHT22;6021;51.182;3.160;2023-01-05T14:49:53;12.70;99.90
11922;DHT22;6021;51.182;3.160;2023-01-05T14:52:56;12.60;99.90
11922;DHT22;6021;51.182;3.160;2023-01-05T14:55:33;12.60;99.90
11922;DHT22;6021;51.182;3.160;2023-01-05T14:58:04;12.70;99.90
11922;DHT22;6021;51.182;3.160;2023-01-05T15:06:08;12.40;99.90
11922;DHT22;6021;51.182;3.160;2023-01-05T15:14:46;12.30;99.90
11922;DHT22;6021;51.182;3.160;2023-01-05T15:17:35;12.40;99.90
11922;DHT22;6021;51.182;3.160;2023-01-05T15:20:09;12.40;99.90
11922;DHT22;6021;51.182;3.160;2023-01-05T15:31:34;12.20;99.90
11922;DHT22;6021;51.182;3.160;2023-01-05T15:37:17;12.30;99.90
11922;DHT22;6021;51.182;3.160;2023-01-05T15:39:48;12.30;99.90
11922;DHT22;6021;51.182;3.160;2023-01-05T15:42:19;12.10;99.90
11922;DHT22;6021;51.182;3.160;2023-01-05T15:44:50;12.30;99.90
11922;DHT22;6021;51.182;3.160;2023-01-05T15:47:21;12.00;99.90
11922;DHT22;6021;51.182;3.160;2023-01-05T15:49:56;12.10;99.90
11922;DHT22;6021;51.182;3.160;2023-01-05T15:52:36;12.00;99.90
11922;DHT22;6021;51.182;3.160;2023-01-05T15:55:13;12.30;99.90
11922;DHT22;6021;51.182;3.160;2023-01-05T15:57:49;12.00;99.90
11922;DHT22;6021;51.182;3.160;2023-01-05T16:00:17;12.00;99.90
11922;DHT22;6021;51.182;3.160;2023-01-05T16:02:47;11.90;99.90
11922;DHT22;6021;51.182;3.160;2023-01-05T16:05:18;12.00;99.90
11922;DHT22;6021;51.182;3.160;2023-01-05T16:08:00;11.70;99.90
11922;DHT22;6021;51.182;3.160;2023-01-05T16:13:15;11.80;99.90
11922;DHT22;6021;51.182;3.160;2023-01-05T16:15:44;11.70;99.90
11922;DHT22;6021;51.182;3.160;2023-01-05T16:18:28;11.90;99.90
11922;DHT22;6021;51.182;3.160;2023-01-05T16:20:48;12.00;99.90
11922;DHT22;6021;51.182;3.160;2023-01-05T16:23:44;11.40;99.90
11922;DHT22;6021;51.182;3.160;2023-01-05T16:26:14;11.70;99.90
11922;DHT22;6021;51.182;3.160;2023-01-05T16:28:43;12.00;99.90
11922;DHT22;6021;51.182;3.160;2023-01-05T16:31:13;11.70;99.90
11922;DHT22;6021;51.182;3.160;2023-01-05T16:33:42;11.90;99.90
11922;DHT22;6021;51.182;3.160;2023-01-05T16:36:19;11.60;99.90
11922;DHT22;6021;51.182;3.160;2023-01-05T16:38:48;11.70;99.90
11922;DHT22;6021;51.182;3.160;2023-01-05T16:41:26;11.40;99.90
11922;DHT22;6021;51.182;3.160;2023-01-05T16:44:02;11.50;99.90
11922;DHT22;6021;51.182;3.160;2023-01-05T16:46:32;11.40;99.90
11922;DHT22;6021;51.182;3.160;2023-01-05T16:49:04;11.40;99.90
11922;DHT22;6021;51.182;3.160;2023-01-05T16:56:54;11.40;99.90
11922;DHT22;6021;51.182;3.160;2023-01-05T17:04:47;11.70;99.90
11922;DHT22;6021;51.182;3.160;2023-01-05T17:07:15;11.90;99.90
11922;DHT22;6021;51.182;3.160;2023-01-05T17:09:43;11.80;99.90
11922;DHT22;6021;51.182;3.160;2023-01-05T17:12:13;11.90;99.90
11922;DHT22;6021;51.182;3.160;2023-01-05T17:14:41;11.60;99.90
11922;DHT22;6021;51.182;3.160;2023-01-05T17:20:37;11.60;99.90
11922;DHT22;6021;51.182;3.160;2023-01-05T17:23:52;11.50;99.90
11922;DHT22;6021;51.182;3.160;2023-01-05T17:25:40;11.40;99.90
11922;DHT22;6021;51.182;3.160;2023-01-05T17:28:10;11.40;99.90
11922;DHT22;6021;51.182;3.160;2023-01-05T17:30:38;11.30;99.90
11922;DHT22;6021;51.182;3.160;2023-01-05T17:33:07;11.30;99.90
11922;DHT22;6021;51.182;3.160;2023-01-05T17:35:35;11.50;99.90
11922;DHT22;6021;51.182;3.160;2023-01-05T17:38:03;11.50;99.90
11922;DHT22;6021;51.182;3.160;2023-01-05T17:40:32;11.60;99.90
11922;DHT22;6021;51.182;3.160;2023-01-05T17:43:00;11.40;99.90
11922;DHT22;6021;51.182;3.160;2023-01-05T17:45:29;11.50;99.90
11922;DHT22;6021;51.182;3.160;2023-01-05T17:47:58;11.70;99.90
11922;DHT22;6021;51.182;3.160;2023-01-05T17:50:29;11.40;99.90
11922;DHT22;6021;51.182;3.160;2023-01-05T17:52:58;11.60;99.90
11922;DHT22;6021;51.182;3.160;2023-01-05T17:55:28;11.90;99.90
11922;DHT22;6021;51.182;3.160;2023-01-05T17:57:57;11.80;99.90
11922;DHT22;6021;51.182;3.160;2023-01-05T18:00:28;11.50;99.90
11922;DHT22;6021;51.182;3.160;2023-01-05T18:02:56;11.40;99.90
11922;DHT22;6021;51.182;3.160;2023-01-05T18:05:25;11.40;99.90
11922;DHT22;6021;51.182;3.160;2023-01-05T18:07:53;11.50;99.90
11922;DHT22;6021;51.182;3.160;2023-01-05T18:10:23;11.40;99.90
11922;DHT22;6021;51.182;3.160;2023-01-05T18:12:52;11.60;99.90
11922;DHT22;6021;51.182;3.160;2023-01-05T18:15:20;11.50;99.90
11922;DHT22;6021;51.182;3.160;2023-01-05T18:17:49;11.60;99.90
11922;DHT22;6021;51.182;3.160;2023-01-05T18:20:18;11.30;99.90
11922;DHT22;6021;51.182;3.160;2023-01-05T18:22:47;11.60;99.90
11922;DHT22;6021;51.182;3.160;2023-01-05T18:25:16;11.60;99.90
11922;DHT22;6021;51.182;3.160;2023-01-05T18:27:45;11.70;99.90
11922;DHT22;6021;51.182;3.160;2023-01-05T18:30:13;11.90;99.90
11922;DHT22;6021;51.182;3.160;2023-01-05T18:32:41;11.60;99.90
11922;DHT22;6021;51.182;3.160;2023-01-05T18:35:10;11.60;99.90
11922;DHT22;6021;51.182;3.160;2023-01-05T18:37:39;11.90;99.90
11922;DHT22;6021;51.182;3.160;2023-01-05T18:40:09;11.80;99.90
11922;DHT22;6021;51.182;3.160;2023-01-05T18:42:38;11.70;99.90
11922;DHT22;6021;51.182;3.160;2023-01-05T18:45:07;11.70;99.90
11922;DHT22;6021;51.182;3.160;2023-01-05T18:47:35;11.60;99.90
11922;DHT22;6021;51.182;3.160;2023-01-05T18:50:04;11.70;99.90
11922;DHT22;6021;51.182;3.160;2023-01-05T18:52:34;11.50;99.90
11922;DHT22;6021;51.182;3.160;2023-01-05T18:55:03;11.40;99.90
11922;DHT22;6021;51.182;3.160;2023-01-05T18:57:32;11.50;99.90